createdAt,value
2022-08-10T00:00:28.888Z,61.50
2022-08-10T00:02:58.779Z,61.50
2022-08-10T00:05:29.205Z,61.50
2022-08-10T00:08:11.821Z,61.60
2022-08-10T00:10:51.620Z,61.60
2022-08-10T00:13:19.479Z,61.70
2022-08-10T00:15:54.124Z,61.80
2022-08-10T00:18:34.310Z,61.70
2022-08-10T00:21:07.662Z,61.80
2022-08-10T00:23:36.743Z,61.80
2022-08-10T00:26:05.782Z,61.80
2022-08-10T00:28:34.015Z,61.90
2022-08-10T00:31:02.250Z,61.80
2022-08-10T00:33:30.058Z,61.90
2022-08-10T00:35:57.823Z,61.90
2022-08-10T00:38:26.935Z,61.80
2022-08-10T00:40:54.701Z,61.90
2022-08-10T00:43:23.404Z,62.00
2022-08-10T00:45:59.428Z,62.10
2022-08-10T00:48:29.563Z,62.10
2022-08-10T00:50:58.400Z,62.90
2022-08-10T00:53:27.722Z,62.10
2022-08-10T00:57:12.542Z,62.20
2022-08-10T00:58:44.990Z,62.10
2022-08-10T01:02:07.853Z,62.20
2022-08-10T01:04:40.027Z,62.20
2022-08-10T01:07:04.632Z,62.30
2022-08-10T01:09:40.341Z,62.20
2022-08-10T01:12:40.049Z,62.30
2022-08-10T01:15:06.479Z,62.40
2022-08-10T01:17:50.127Z,62.40
2022-08-10T01:20:30.079Z,62.40
2022-08-10T01:23:42.398Z,62.40
2022-08-10T01:26:50.258Z,62.40
2022-08-10T01:29:42.836Z,62.50
2022-08-10T01:32:14.386Z,62.40
2022-08-10T01:34:50.429Z,62.50
2022-08-10T01:37:22.995Z,62.50
2022-08-10T01:39:56.976Z,62.60
2022-08-10T01:42:26.116Z,62.60
2022-08-10T01:44:58.302Z,62.60
2022-08-10T01:47:48.015Z,62.80
2022-08-10T01:50:23.926Z,62.80
2022-08-10T01:52:54.237Z,62.80
2022-08-10T01:55:23.530Z,62.90
2022-08-10T01:57:53.758Z,63.00
2022-08-10T02:00:23.207Z,63.10
2022-08-10T02:02:52.530Z,63.10
2022-08-10T02:05:22.999Z,63.10
2022-08-10T02:07:51.516Z,63.10
2022-08-10T02:10:20.779Z,63.20
2022-08-10T02:12:50.508Z,63.20
2022-08-10T02:15:22.816Z,63.10
2022-08-10T02:18:00.250Z,63.20
2022-08-10T02:20:34.398Z,63.30
2022-08-10T02:23:05.412Z,63.40
2022-08-10T02:25:40.612Z,63.40
2022-08-10T02:28:26.915Z,63.40
2022-08-10T02:30:58.571Z,63.40
2022-08-10T02:33:27.773Z,63.50
2022-08-10T02:36:00.925Z,63.60
2022-08-10T02:45:13.076Z,64.40
2022-08-10T02:45:19.471Z,63.80
2022-08-10T02:47:51.942Z,63.90
2022-08-10T02:50:27.440Z,63.90
2022-08-10T02:53:02.310Z,64.00
2022-08-10T02:55:35.330Z,64.00
2022-08-10T02:58:16.813Z,64.10
2022-08-10T03:00:52.715Z,64.30
2022-08-10T03:03:25.306Z,64.30
2022-08-10T03:05:57.699Z,64.30
2022-08-10T03:08:29.383Z,64.30
2022-08-10T03:11:00.329Z,64.40
2022-08-10T03:13:29.379Z,64.50
2022-08-10T03:15:58.252Z,64.60
2022-08-10T03:18:27.827Z,64.60
2022-08-10T03:20:57.570Z,64.60
2022-08-10T03:23:30.008Z,64.60
2022-08-10T03:26:00.083Z,64.80
2022-08-10T03:28:30.137Z,64.80
2022-08-10T03:30:59.357Z,64.90
2022-08-10T03:33:31.934Z,64.90
2022-08-10T03:36:43.021Z,64.90
2022-08-10T03:38:48.633Z,65.00
2022-08-10T03:41:20.550Z,65.10
2022-08-10T03:43:50.579Z,65.80
2022-08-10T03:46:22.266Z,65.10
2022-08-10T03:48:54.833Z,65.20
2022-08-10T03:51:23.986Z,65.20
2022-08-10T03:54:03.473Z,65.30
2022-08-10T03:56:37.681Z,65.30
2022-08-10T03:59:07.708Z,65.30
2022-08-10T04:02:43.940Z,65.40
2022-08-10T04:04:26.043Z,65.30
2022-08-10T04:06:56.091Z,65.50
2022-08-10T04:09:25.010Z,65.60
2022-08-10T04:12:11.570Z,65.50
2022-08-10T04:14:49.902Z,65.70
2022-08-10T04:18:01.192Z,65.70
2022-08-10T04:20:20.205Z,65.80
2022-08-10T04:22:51.732Z,66.20
2022-08-10T04:25:20.493Z,66.20
2022-08-10T04:27:49.039Z,66.20
2022-08-10T04:30:17.319Z,65.80
2022-08-10T04:32:48.430Z,65.90
2022-08-10T04:35:19.844Z,65.70
2022-08-10T04:37:50.456Z,65.70
2022-08-10T04:40:28.637Z,65.70
2022-08-10T04:43:01.339Z,65.70
2022-08-10T04:45:47.537Z,65.60
2022-08-10T04:48:42.173Z,65.60
2022-08-10T04:51:15.970Z,65.50
2022-08-10T04:54:04.559Z,65.60
2022-08-10T04:56:36.241Z,65.50
2022-08-10T04:59:10.038Z,65.40
2022-08-10T05:02:22.542Z,66.00
2022-08-10T05:04:37.110Z,66.00
2022-08-10T05:07:16.043Z,65.70
2022-08-10T05:10:01.016Z,65.50
2022-08-10T05:12:36.478Z,65.60
2022-08-10T05:15:07.050Z,65.60
2022-08-10T05:17:35.413Z,65.70
2022-08-10T05:20:06.730Z,65.70
2022-08-10T05:22:40.377Z,65.80
2022-08-10T05:25:10.937Z,65.80
2022-08-10T05:27:39.412Z,65.90
2022-08-10T05:30:08.516Z,65.90
2022-08-10T05:32:57.717Z,66.00
2022-08-10T05:35:26.193Z,66.30
2022-08-10T05:38:13.461Z,66.20
2022-08-10T05:40:47.221Z,66.20
2022-08-10T05:43:19.417Z,66.30
2022-08-10T05:46:16.949Z,66.20
2022-08-10T05:48:56.457Z,66.40
2022-08-10T05:51:25.747Z,66.40
2022-08-10T05:54:02.116Z,66.60
2022-08-10T05:56:55.378Z,66.60
2022-08-10T06:00:33.504Z,66.80
2022-08-10T06:02:33.508Z,66.70
2022-08-10T06:05:01.186Z,67.00
2022-08-10T06:07:31.129Z,67.00
2022-08-10T06:10:03.927Z,67.00
2022-08-10T06:12:55.353Z,67.00
2022-08-10T06:15:50.881Z,66.90
2022-08-10T06:18:41.650Z,66.60
2022-08-10T06:21:10.348Z,66.80
2022-08-10T06:23:38.929Z,66.90
2022-08-10T06:26:36.707Z,66.90
2022-08-10T06:29:08.851Z,66.60
2022-08-10T06:31:47.678Z,66.80
2022-08-10T06:34:21.069Z,66.60
2022-08-10T06:36:49.591Z,66.40
2022-08-10T06:39:32.964Z,66.30
2022-08-10T06:45:08.601Z,66.20
2022-08-10T06:47:44.464Z,66.00
2022-08-10T06:50:45.486Z,65.90
2022-08-10T06:53:10.891Z,65.90
2022-08-10T06:55:55.200Z,65.70
2022-08-10T06:58:34.459Z,65.70
2022-08-10T07:01:04.868Z,65.80
2022-08-10T07:03:37.550Z,65.70
2022-08-10T07:06:07.331Z,65.60
2022-08-10T07:08:37.648Z,65.60
2022-08-10T07:11:11.763Z,65.50
2022-08-10T07:14:14.324Z,65.50
2022-08-10T07:16:32.667Z,65.40
2022-08-10T07:19:03.449Z,65.40
2022-08-10T07:21:36.012Z,65.30
2022-08-10T07:24:08.039Z,65.10
2022-08-10T07:26:38.121Z,64.90
2022-08-10T07:29:08.560Z,64.70
2022-08-10T07:31:58.419Z,64.60
2022-08-10T07:34:29.139Z,64.40
2022-08-10T07:37:02.644Z,64.30
2022-08-10T07:40:01.937Z,64.20
2022-08-10T07:42:22.105Z,64.10
2022-08-10T07:44:52.112Z,64.00
2022-08-10T07:47:46.219Z,63.70
2022-08-10T07:53:18.156Z,63.60
2022-08-10T07:56:05.895Z,63.40
2022-08-10T07:58:40.283Z,63.30
2022-08-10T08:01:19.022Z,63.10
2022-08-10T08:04:10.210Z,63.00
2022-08-10T08:06:38.169Z,62.80
2022-08-10T08:09:06.354Z,62.80
2022-08-10T08:11:34.715Z,62.70
2022-08-10T09:50:09.948Z,57.30
2022-08-10T09:53:00.305Z,57.20
2022-08-10T09:56:17.360Z,56.90
2022-08-10T09:58:41.422Z,56.90
2022-08-10T10:01:56.309Z,56.30
2022-08-10T10:04:15.128Z,56.60
2022-08-10T10:06:52.868Z,56.60
2022-08-10T10:09:30.346Z,56.40
2022-08-10T10:12:13.746Z,56.20
2022-08-10T10:15:24.115Z,56.20
2022-08-10T10:18:05.793Z,56.10
2022-08-10T10:20:40.271Z,55.90
2022-08-10T10:23:20.096Z,55.90
2022-08-10T10:26:01.666Z,56.00
2022-08-10T10:31:42.859Z,55.70
2022-08-10T10:34:18.849Z,55.60
2022-08-10T10:36:47.882Z,55.60
2022-08-10T10:39:24.118Z,55.40
2022-08-10T10:42:04.689Z,54.60
2022-08-10T10:44:46.291Z,55.10
2022-08-10T10:47:35.939Z,55.20
2022-08-10T10:50:10.301Z,54.40
2022-08-10T10:56:14.689Z,54.30
2022-08-10T10:58:49.800Z,54.50
2022-08-10T11:01:33.762Z,54.40
2022-08-10T11:04:16.893Z,54.50
2022-08-10T11:06:53.649Z,54.60
2022-08-10T11:10:03.770Z,54.30
2022-08-10T11:12:39.974Z,54.40
2022-08-10T11:15:23.004Z,54.20
2022-08-10T11:17:57.388Z,53.80
2022-08-10T11:20:33.101Z,53.90
2022-08-10T11:23:09.222Z,53.70
2022-08-10T11:25:40.826Z,53.80
2022-08-10T11:28:17.705Z,53.70
2022-08-10T11:30:50.960Z,53.70
2022-08-10T11:33:32.443Z,53.50
2022-08-10T11:36:04.790Z,53.60
2022-08-10T11:38:57.986Z,53.50
2022-08-10T11:42:09.752Z,53.60
2022-08-10T11:44:32.978Z,53.60
2022-08-10T11:47:06.382Z,53.50
2022-08-10T11:49:39.003Z,53.20
2022-08-10T11:58:31.821Z,53.10
2022-08-10T12:01:07.567Z,53.20
2022-08-10T12:03:38.495Z,53.10
2022-08-10T12:06:13.168Z,53.10
2022-08-10T12:10:04.664Z,52.80
2022-08-10T12:11:32.618Z,52.80
2022-08-10T12:17:09.149Z,52.70
2022-08-10T12:19:59.884Z,52.50
2022-08-10T12:22:35.154Z,52.60
2022-08-10T12:25:08.289Z,52.10
2022-08-10T12:27:41.466Z,52.10
2022-08-10T12:30:12.160Z,51.80
2022-08-10T12:32:49.791Z,52.00
2022-08-10T12:35:26.532Z,51.80
2022-08-10T12:38:04.865Z,52.00
2022-08-10T12:40:38.450Z,51.60
2022-08-10T12:44:04.684Z,51.90
2022-08-10T12:46:08.151Z,51.80
2022-08-10T12:48:44.906Z,51.80
2022-08-10T12:51:19.530Z,51.60
2022-08-10T12:56:52.261Z,51.50
2022-08-10T12:59:24.801Z,51.40
2022-08-10T13:02:06.187Z,51.60
2022-08-10T13:04:43.364Z,51.60
2022-08-10T13:08:25.612Z,51.30
2022-08-10T13:13:02.530Z,50.70
2022-08-10T13:15:49.422Z,50.90
2022-08-10T13:18:26.018Z,51.10
2022-08-10T13:21:01.071Z,50.90
2022-08-10T13:23:33.062Z,50.90
2022-08-10T13:26:02.530Z,50.70
2022-08-10T13:28:45.228Z,50.50
2022-08-10T13:31:17.611Z,49.60
2022-08-10T13:34:38.864Z,50.20
2022-08-10T13:36:44.558Z,50.30
2022-08-10T13:39:14.096Z,50.50
2022-08-10T13:41:45.841Z,50.70
2022-08-10T13:44:18.578Z,50.10
2022-08-10T13:46:51.699Z,50.40
2022-08-10T13:49:21.320Z,50.50
2022-08-10T13:51:53.720Z,50.60
2022-08-10T13:54:28.762Z,50.50
2022-08-10T13:56:57.728Z,50.40
2022-08-10T14:00:36.703Z,49.90
2022-08-10T14:02:25.427Z,50.50
2022-08-10T14:04:55.852Z,50.50
2022-08-10T14:07:27.013Z,50.60
2022-08-10T14:10:01.280Z,50.30
2022-08-10T14:12:41.041Z,49.90
2022-08-10T14:15:14.309Z,49.80
2022-08-10T14:17:45.051Z,49.80
2022-08-10T14:20:19.284Z,50.10
2022-08-10T14:22:50.767Z,50.20
2022-08-10T14:25:18.662Z,49.90
2022-08-10T14:28:02.802Z,49.60
2022-08-10T14:30:33.833Z,50.00
2022-08-10T14:33:04.740Z,50.00
2022-08-10T14:36:19.325Z,49.90
2022-08-10T14:38:30.893Z,49.00
2022-08-10T14:41:05.121Z,49.70
2022-08-10T14:43:39.576Z,49.80
2022-08-10T14:46:11.314Z,49.90
2022-08-10T14:48:41.728Z,49.60
2022-08-10T14:51:15.814Z,49.90
2022-08-10T14:56:49.061Z,49.60
2022-08-10T14:59:18.577Z,49.70
2022-08-10T15:02:00.204Z,49.60
2022-08-10T15:04:39.401Z,49.60
2022-08-10T15:07:12.800Z,49.50
2022-08-10T15:10:01.017Z,48.90
2022-08-10T15:12:34.186Z,49.40
2022-08-10T15:15:04.318Z,49.20
2022-08-10T15:17:35.846Z,49.20
2022-08-10T15:20:14.277Z,49.50
2022-08-10T15:22:50.285Z,49.10
2022-08-10T15:25:25.572Z,48.10
2022-08-10T15:27:57.809Z,48.70
2022-08-10T15:34:05.326Z,49.40
2022-08-10T15:37:02.061Z,49.10
2022-08-10T15:40:26.699Z,48.70
2022-08-10T15:42:36.406Z,48.90
2022-08-10T15:45:05.162Z,48.70
2022-08-10T15:47:45.911Z,48.90
2022-08-10T15:50:19.758Z,49.20
2022-08-10T15:53:01.223Z,49.10
2022-08-10T15:55:42.852Z,48.50
2022-08-10T15:58:19.825Z,48.00
2022-08-10T16:00:59.392Z,48.10
2022-08-10T16:03:33.409Z,48.40
2022-08-10T16:06:03.441Z,48.10
2022-08-10T16:08:57.234Z,47.80
2022-08-10T16:11:41.456Z,48.10
2022-08-10T16:14:17.059Z,48.10
2022-08-10T16:16:50.283Z,48.30
2022-08-10T16:19:23.974Z,47.10
2022-08-10T16:22:00.694Z,48.10
2022-08-10T16:27:38.534Z,48.70
2022-08-10T16:30:08.821Z,47.90
2022-08-10T16:32:39.243Z,48.60
2022-08-10T16:35:11.175Z,48.60
2022-08-10T16:37:58.857Z,49.00
2022-08-10T16:40:29.579Z,49.20
2022-08-10T16:45:59.397Z,49.30
2022-08-10T16:48:49.704Z,49.40
2022-08-10T16:51:21.615Z,49.60
2022-08-10T16:54:24.799Z,49.60
2022-08-10T16:57:00.032Z,49.70
2022-08-10T16:59:30.360Z,49.60
2022-08-10T17:02:01.278Z,49.30
2022-08-10T17:04:31.006Z,49.20
2022-08-10T17:07:00.705Z,49.20
2022-08-10T17:09:30.151Z,49.00
2022-08-10T17:12:00.257Z,49.20
2022-08-10T17:14:29.931Z,49.30
2022-08-10T17:17:01.218Z,49.00
2022-08-10T17:19:32.931Z,48.90
2022-08-10T17:22:04.989Z,49.00
2022-08-10T17:24:36.086Z,48.80
2022-08-10T17:28:05.487Z,48.70
2022-08-10T17:30:04.257Z,48.80
2022-08-10T17:32:43.751Z,49.10
2022-08-10T17:35:22.989Z,48.70
2022-08-10T17:37:56.299Z,48.80
2022-08-10T17:40:27.847Z,48.80
2022-08-10T17:42:56.146Z,49.20
2022-08-10T17:45:48.173Z,48.80
2022-08-10T17:48:17.313Z,49.30
2022-08-10T17:51:18.189Z,49.30
2022-08-10T17:53:48.990Z,49.40
2022-08-10T17:56:17.631Z,49.60
2022-08-10T17:58:50.842Z,49.30
2022-08-10T18:01:40.653Z,49.60
2022-08-10T18:04:16.076Z,49.60
2022-08-10T18:06:44.819Z,49.80
2022-08-10T18:09:25.130Z,50.00
2022-08-10T18:12:00.151Z,50.10
2022-08-10T18:14:31.682Z,50.20
2022-08-10T18:17:01.032Z,50.40
2022-08-10T18:19:33.852Z,50.40
2022-08-10T18:22:02.504Z,50.60
2022-08-10T18:24:32.540Z,50.60
2022-08-10T18:27:03.584Z,50.60
2022-08-10T18:29:32.147Z,50.60
2022-08-10T18:32:02.572Z,50.60
2022-08-10T18:34:35.084Z,50.60
2022-08-10T18:37:06.182Z,50.70
2022-08-10T18:39:38.408Z,50.70
2022-08-10T18:42:11.306Z,50.90
2022-08-10T18:44:42.843Z,51.00
2022-08-10T18:47:15.003Z,51.10
2022-08-10T18:50:01.932Z,51.20
2022-08-10T18:52:33.567Z,51.30
2022-08-10T18:55:46.254Z,51.40
2022-08-10T18:58:49.817Z,51.50
2022-08-10T19:01:49.531Z,51.60
2022-08-10T19:04:28.145Z,51.50
2022-08-10T19:07:23.657Z,51.60
2022-08-10T19:10:03.390Z,51.70
2022-08-10T19:12:43.287Z,51.90
2022-08-10T19:15:22.271Z,51.90
2022-08-10T19:18:05.615Z,51.90
2022-08-10T19:20:42.090Z,52.30
2022-08-10T19:23:24.383Z,52.00
2022-08-10T19:26:41.900Z,52.10
2022-08-10T19:28:58.540Z,52.10
2022-08-10T19:31:41.939Z,52.10
2022-08-10T19:34:30.935Z,52.20
2022-08-10T19:37:09.465Z,52.30
2022-08-10T19:39:59.684Z,52.30
2022-08-10T19:42:34.945Z,52.40
2022-08-10T19:45:56.076Z,53.10
2022-08-10T19:48:11.912Z,52.50
2022-08-10T19:50:45.140Z,52.60
2022-08-10T19:53:51.117Z,53.30
2022-08-10T19:56:55.870Z,52.60
2022-08-10T20:00:17.274Z,52.70
2022-08-10T20:03:08.117Z,52.80
2022-08-10T20:06:18.758Z,52.80
2022-08-10T20:08:47.179Z,52.80
2022-08-10T20:11:45.819Z,52.80
2022-08-10T20:14:22.343Z,52.90
2022-08-10T20:16:53.500Z,52.90
2022-08-10T20:19:53.530Z,53.00
2022-08-10T20:22:29.199Z,53.00
2022-08-10T20:25:02.355Z,53.10
2022-08-10T20:27:57.621Z,53.10
2022-08-10T20:30:30.002Z,53.20
2022-08-10T20:33:05.167Z,53.30
2022-08-10T20:35:43.052Z,53.40
2022-08-10T20:41:22.687Z,53.40
2022-08-10T20:44:06.052Z,53.50
2022-08-10T20:46:42.489Z,53.50
2022-08-10T20:49:21.665Z,53.50
2022-08-10T20:51:58.746Z,53.50
2022-08-10T20:54:34.800Z,53.60
2022-08-10T20:57:55.567Z,53.70
2022-08-10T21:00:13.739Z,53.80
2022-08-10T21:03:09.108Z,53.90
2022-08-10T21:05:55.413Z,54.00
2022-08-10T21:08:36.730Z,54.00
2022-08-10T21:11:12.390Z,54.00
2022-08-10T21:13:57.984Z,54.30
2022-08-10T21:17:04.532Z,54.20
2022-08-10T21:20:01.743Z,54.20
2022-08-10T21:22:35.311Z,54.20
2022-08-10T21:25:06.407Z,54.20
2022-08-10T21:28:03.364Z,54.30
2022-08-10T21:30:54.291Z,54.30
2022-08-10T21:33:35.753Z,54.40
2022-08-10T21:36:10.436Z,54.50
2022-08-10T21:38:51.538Z,54.50
2022-08-10T21:41:57.571Z,54.50
2022-08-10T21:45:10.237Z,54.50
2022-08-10T21:48:16.589Z,54.50
2022-08-10T21:51:16.476Z,54.60
2022-08-10T21:54:18.103Z,54.60
2022-08-10T21:57:12.419Z,54.60
2022-08-10T22:00:05.363Z,54.70
2022-08-10T22:02:57.662Z,54.70
2022-08-10T22:09:03.812Z,54.90
2022-08-10T22:15:09.754Z,55.10
2022-08-10T22:18:05.044Z,55.20
2022-08-10T22:20:53.598Z,55.20
2022-08-10T22:24:35.941Z,55.20
2022-08-10T22:27:57.271Z,55.30
2022-08-10T22:31:24.399Z,55.50
2022-08-10T22:34:09.046Z,55.60
2022-08-10T22:37:11.446Z,55.50
2022-08-10T22:40:16.695Z,55.60
2022-08-10T22:43:09.848Z,55.70
2022-08-10T22:46:03.375Z,55.80
2022-08-10T22:48:51.897Z,55.80
2022-08-10T22:51:23.602Z,55.90
2022-08-10T22:54:30.491Z,56.10
2022-08-10T22:57:18.386Z,56.10
2022-08-10T22:59:49.171Z,56.10
2022-08-10T23:02:31.446Z,56.20
2022-08-10T23:05:06.496Z,56.20
2022-08-10T23:07:42.165Z,56.30
2022-08-10T23:10:13.213Z,56.30
2022-08-10T23:12:44.838Z,56.50
2022-08-10T23:15:40.301Z,56.50
2022-08-10T23:18:28.874Z,56.50
2022-08-10T23:20:57.837Z,56.50
2022-08-10T23:23:28.676Z,56.50
2022-08-10T23:25:59.831Z,56.60
2022-08-10T23:28:38.277Z,56.70
2022-08-10T23:31:13.115Z,56.70
2022-08-10T23:33:42.905Z,56.80
2022-08-10T23:36:33.632Z,56.80
2022-08-10T23:39:25.275Z,56.90
2022-08-10T23:41:58.289Z,56.90
2022-08-10T23:44:33.521Z,56.90
2022-08-10T23:47:04.864Z,56.90
2022-08-10T23:49:35.835Z,57.00
2022-08-10T23:52:11.459Z,57.00
2022-08-10T23:54:45.647Z,57.10
2022-08-10T23:57:17.990Z,57.10
2022-08-10T23:59:52.990Z,57.20
